Y04 weather

Sugar Loaf Resort Airport
Traverse City, Michigan, United States

Public forecast

Using degrees Fahrenheit for public forecast. Weather courtesy of forecast.io.

METAR (pilot weather report)

Closest report is Cherry Capital Airport, 14.2 nm (26.4 km) SE. Retrieved 2019/06/25 12:15 UTC (37 minutes ago):

KTVC 251215Z 24009KT 10SM BKN011 BKN055 BKN075 18/16 A2970 RMK AO2 T01780161

TAF (pilot weather forecast)

Closest forecast is Cherry Capital Airport, 14.2 nm (26.4 km) SE. Retrieved 2019/06/25 12:22 UTC (30 minutes ago):

TAF KTVC 251120Z 2512/2612 25010KT P6SM BKN035 OVC050 FM251400 25011KT P6SM SCT200 FM252000 23014G22KT P6SM SCT080 FM252300 23015KT P6SM FEW050 FM260000 23015KT P6SM VCSH SCT040 FM260300 23010KT P6SM FEW060 FM261100 25008KT P6SM FEW250